»·PEaware :: SWA1021 KPSP-KSFO

SWA1021 :: KPSP-KSFO

FLIGHT INFORMATION

Flight Status: Arrived
Operator:
Southwest Airlines
More flights by this operator :: More flights under this callsign
Pilot: Hyatt B. (30410)
Aircraft: BOEING 737-700
(B737)
More flights by this aircraft type
Origin: KPSP Palm Springs Intl
United States
Destination: KSFO San Francisco Intl
United States
More flights between these airports :: More routes between these airports
Route: +CATH1 PSP V386 PMD J6 ROBIE SERFR SERFR4
File this flight plan on PilotEdge
Remarks:
Altitude:
(Current/Filed)
30,000ft
Speed:
(Current/Filed)
450kts
Departed: 17-Jul-20 01:21 PM
Arrived: 17-Jul-20 02:26 PM
Distance/Time
Traveled:
365nm/1:05
Distance/Time
To Go:
Arrived

Flight Plot

Page will automatically refresh every two minutes.

Flight plan parsing failed; only flown route is shown


Map Options




Map Legend


Flown Route
Filed Route
Departure Airport
Arrival Airport
Navaid (VOR, NDB)
Fix

Horizontal Profiles

Position Reports

Time Latitude Longitude Heading Altitude Ground
Speed
17-Jul-20 13:01 33.823873 -116.506544 194 421ft 0kts
17-Jul-20 13:02 33.823873 -116.506544 194 421ft 0kts
17-Jul-20 13:03 33.823873 -116.506544 194 421ft 0kts
17-Jul-20 13:04 33.823873 -116.506544 194 421ft 0kts
17-Jul-20 13:05 33.823873 -116.506544 194 421ft 0kts
17-Jul-20 13:06 33.823873 -116.506544 194 421ft 0kts
17-Jul-20 13:07 33.823873 -116.506544 194 421ft 0kts
17-Jul-20 13:08 33.823873 -116.506544 194 421ft 0kts
17-Jul-20 13:09 33.823873 -116.506544 194 421ft 0kts
17-Jul-20 13:10 33.823986 -116.506508 195 421ft 2kts
17-Jul-20 13:11 33.824550 -116.506330 194 422ft 2kts
17-Jul-20 13:12 33.824934 -116.506333 137 423ft 1kts
17-Jul-20 13:13 33.824961 -116.506361 140 423ft 0kts
17-Jul-20 13:14 33.824508 -116.505966 144 421ft 8kts
17-Jul-20 13:15 33.823170 -116.504298 110 417ft 6kts
17-Jul-20 13:16 33.820682 -116.501704 143 410ft 12kts
17-Jul-20 13:17 33.818533 -116.499548 104 405ft 5kts
17-Jul-20 13:18 33.818506 -116.499262 91 405ft 0kts
17-Jul-20 13:19 33.819312 -116.498424 325 405ft 8kts
17-Jul-20 13:20 33.842331 -116.518914 323 1018ft 213kts
17-Jul-20 13:21 33.893318 -116.558995 346 4534ft 248kts
17-Jul-20 13:22 33.937325 -116.508919 107 7720ft 292kts
17-Jul-20 13:23 33.881262 -116.439661 123 11278ft 307kts
17-Jul-20 13:24 33.886529 -116.334149 55 12988ft 347kts
17-Jul-20 13:25 33.972684 -116.294135 347 13374ft 354kts
17-Jul-20 13:26 34.045048 -116.365348 291 14971ft 359kts
17-Jul-20 13:27 34.085153 -116.478098 290 17976ft 374kts
17-Jul-20 13:28 34.126532 -116.595512 290 20979ft 388kts
17-Jul-20 13:29 34.169399 -116.717622 290 23149ft 402kts
17-Jul-20 13:30 34.212852 -116.841809 290 24931ft 408kts
17-Jul-20 13:31 34.257534 -116.970075 290 27365ft 422kts
17-Jul-20 13:32 34.303692 -117.103120 290 29550ft 436kts
17-Jul-20 13:33 34.351527 -117.241610 291 30067ft 457kts
17-Jul-20 13:34 34.400610 -117.384279 291 30087ft 457kts
17-Jul-20 13:35 34.449305 -117.526450 291 30090ft 457kts
17-Jul-20 13:36 34.497761 -117.668568 290 30088ft 458kts
17-Jul-20 13:37 34.546452 -117.812016 290 30078ft 462kts
17-Jul-20 13:38 34.595130 -117.956073 290 30069ft 463kts
17-Jul-20 13:39 34.654392 -118.094291 305 30075ft 466kts
17-Jul-20 13:40 34.736890 -118.215895 308 30068ft 467kts
17-Jul-20 13:41 34.820172 -118.336300 308 30065ft 467kts
17-Jul-20 13:42 34.903504 -118.457245 308 30114ft 466kts
17-Jul-20 13:43 34.986692 -118.578396 308 30155ft 465kts
17-Jul-20 13:44 35.056599 -118.709118 297 30151ft 461kts
17-Jul-20 13:45 35.121018 -118.844535 299 30057ft 462kts
17-Jul-20 13:46 35.185885 -118.980863 297 29972ft 465kts
17-Jul-20 13:47 35.249509 -119.118581 298 29962ft 466kts
17-Jul-20 13:48 35.313858 -119.256091 298 29962ft 466kts
17-Jul-20 13:49 35.378292 -119.394381 298 29962ft 466kts
17-Jul-20 13:50 35.442326 -119.532365 298 29959ft 466kts
17-Jul-20 13:51 35.504950 -119.667847 298 29954ft 466kts
17-Jul-20 13:52 35.558329 -119.784985 297 30005ft 467kts
17-Jul-20 13:53 35.622916 -119.924494 298 30097ft 477kts
17-Jul-20 13:54 35.676615 -120.067984 290 30020ft 464kts
17-Jul-20 13:55 35.724991 -120.215599 290 30017ft 463kts
17-Jul-20 13:56 35.773062 -120.362515 290 30019ft 463kts
17-Jul-20 13:57 35.821056 -120.509925 290 30019ft 463kts
17-Jul-20 13:58 35.868475 -120.656287 290 30019ft 463kts
17-Jul-20 13:59 35.916209 -120.804331 290 30019ft 463kts
17-Jul-20 14:00 35.963704 -120.952392 290 30019ft 463kts
17-Jul-20 14:01 36.004629 -121.102947 285 30019ft 462kts
17-Jul-20 14:02 36.037855 -121.239171 286 30034ft 461kts
17-Jul-20 14:03 36.101961 -121.375075 312 30059ft 455kts
17-Jul-20 14:04 36.201904 -121.469058 327 30069ft 456kts
17-Jul-20 14:05 36.308320 -121.552044 327 29498ft 449kts
17-Jul-20 14:06 36.411396 -121.632945 327 26976ft 431kts
17-Jul-20 14:07 36.510147 -121.710713 326 24592ft 412kts
17-Jul-20 14:08 36.605124 -121.785949 327 22197ft 398kts
17-Jul-20 14:09 36.696550 -121.858411 327 19861ft 386kts
17-Jul-20 14:10 36.793153 -121.908573 347 17552ft 373kts
17-Jul-20 14:11 36.892879 -121.936451 348 15227ft 363kts
17-Jul-20 14:12 36.988957 -121.967273 343 12994ft 352kts
17-Jul-20 14:13 37.078697 -122.002402 342 10996ft 331kts
17-Jul-20 14:14 37.163420 -122.035820 343 10067ft 314kts
17-Jul-20 14:15 37.245500 -122.067659 340 8522ft 293kts
17-Jul-20 14:16 37.314153 -122.094740 340 7177ft 223kts
17-Jul-20 14:17 37.371572 -122.117436 340 5990ft 219kts
17-Jul-20 14:18 37.429167 -122.137355 342 4794ft 212kts
17-Jul-20 14:19 37.485435 -122.156669 342 3597ft 207kts
17-Jul-20 14:20 37.536336 -122.184814 311 2577ft 195kts
17-Jul-20 14:22 37.562213 -122.240650 297 1707ft 171kts
17-Jul-20 14:23 37.581792 -122.287292 299 876ft 137kts
17-Jul-20 14:24 37.600110 -122.331017 301 574ft 147kts
17-Jul-20 14:25 37.617686 -122.372516 298 14ft 98kts
17-Jul-20 14:26 37.621591 -122.381924 293 14ft 14kts
17-Jul-20 14:27 37.621327 -122.383188 201 14ft 0kts
17-Jul-20 14:28 37.619965 -122.383821 213 14ft 6kts
17-Jul-20 14:29 37.619743 -122.384012 214 14ft 0kts
17-Jul-20 14:30 37.619743 -122.384012 214 14ft 0kts

Navigation Log

Ident Type
Flight plan parsing failed, navigation log unavailable